Time;durP1;ratioP1;P1;durP2;ratioP2;P2;SDS_P1;SDS_P2;PMS_P1;PMS_P2;Temp;Humidity;BMP_temperature;BMP_pressure;BME280_temperature;BME280_humidity;BME280_pressure;Samples;Min_cycle;Max_cycle;Signal;HPM_P1;HPM_P2
2023/06/04 00:02:10;;;;;;;2.45;0.70;;;23.80;32.80;;;;;;5027068;28;21595;-65
2023/06/04 00:04:36;;;;;;;1.42;0.50;;;23.80;32.80;;;;;;5049803;28;20056;-64
2023/06/04 00:07:02;;;;;;;1.15;0.60;;;23.80;32.80;;;;;;5029956;28;20084;-63
2023/06/04 00:09:31;;;;;;;0.55;0.40;;;23.80;32.90;;;;;;5049288;28;20412;-62
2023/06/04 00:11:57;;;;;;;1.38;0.52;;;23.80;32.90;;;;;;5051433;28;20058;-62
2023/06/04 00:14:23;;;;;;;0.70;0.50;;;23.80;32.90;;;;;;5051713;28;20045;-61
2023/06/04 00:16:49;;;;;;;0.98;0.60;;;23.80;32.90;;;;;;5052007;28;20533;-60
2023/06/04 00:19:15;;;;;;;0.52;0.50;;;23.80;33.00;;;;;;5048779;28;20037;-62
2023/06/04 00:21:41;;;;;;;0.80;0.50;;;23.80;33.10;;;;;;5026838;28;20030;-61
2023/06/04 00:24:07;;;;;;;1.95;0.60;;;23.80;33.00;;;;;;5051898;28;20158;-63
2023/06/04 00:26:33;;;;;;;1.45;0.70;;;23.70;32.90;;;;;;5055158;28;20112;-64
2023/06/04 00:29:00;;;;;;;0.80;0.40;;;23.70;33.00;;;;;;5033605;28;20134;-65
2023/06/04 00:31:26;;;;;;;0.82;0.50;;;23.70;33.00;;;;;;5049317;28;20424;-61
2023/06/04 00:33:52;;;;;;;1.77;0.73;;;23.70;33.00;;;;;;5055226;28;20070;-61
2023/06/04 00:36:18;;;;;;;0.65;0.47;;;23.70;33.10;;;;;;5028570;28;20435;-60
2023/06/04 00:38:44;;;;;;;0.50;0.50;;;23.70;33.10;;;;;;5029270;28;20033;-63
2023/06/04 00:41:09;;;;;;;0.70;0.60;;;23.70;33.10;;;;;;5026325;28;20037;-63
2023/06/04 00:43:35;;;;;;;1.05;0.60;;;23.70;33.10;;;;;;5033961;28;20111;-62
2023/06/04 00:46:05;;;;;;;0.63;0.40;;;23.70;33.10;;;;;;5053544;28;20148;-62
2023/06/04 00:48:31;;;;;;;0.68;0.43;;;23.70;33.10;;;;;;5051581;28;20131;-62
2023/06/04 00:50:57;;;;;;;0.63;0.47;;;23.70;33.10;;;;;;5020306;28;20032;-64
2023/06/04 00:53:25;;;;;;;1.00;0.70;;;23.70;33.20;;;;;;5034335;28;20385;-62
2023/06/04 00:55:51;;;;;;;1.10;0.57;;;23.70;33.20;;;;;;5051810;28;20056;-65
2023/06/04 00:58:17;;;;;;;1.33;0.60;;;23.70;33.80;;;;;;5050631;28;20028;-62
2023/06/04 01:00:44;;;;;;;0.90;0.73;;;23.60;33.10;;;;;;5051524;28;20051;-62
2023/06/04 01:03:15;;;;;;;1.40;0.50;;;23.60;33.10;;;;;;5048510;28;20033;-63
2023/06/04 01:05:48;;;;;;;1.10;0.40;;;23.60;33.10;;;;;;5049878;28;20116;-64
2023/06/04 01:08:15;;;;;;;1.45;0.45;;;23.60;33.10;;;;;;5030544;28;20113;-64
2023/06/04 01:10:52;;;;;;;1.35;0.60;;;23.60;33.10;;;;;;5047266;28;20036;-63
2023/06/04 01:13:18;;;;;;;0.50;0.38;;;23.60;33.10;;;;;;5051204;28;20381;-62
2023/06/04 01:15:44;;;;;;;1.20;0.60;;;23.60;33.10;;;;;;5031173;28;20056;-65
2023/06/04 01:18:11;;;;;;;1.20;0.50;;;23.60;33.10;;;;;;5030482;28;20410;-63
2023/06/04 01:20:42;;;;;;;0.80;0.60;;;23.60;33.20;;;;;;5015637;28;20041;-60
2023/06/04 01:23:33;;;;;;;0.60;0.43;;;23.60;33.20;;;;;;5028156;28;20157;-63
2023/06/04 01:26:02;;;;;;;0.93;0.40;;;23.60;33.20;;;;;;5047774;28;20136;-63
2023/06/04 01:28:32;;;;;;;0.55;0.32;;;23.50;33.20;;;;;;5018495;28;20025;-64
2023/06/04 01:30:59;;;;;;;0.93;0.60;;;23.60;33.20;;;;;;5032582;28;20020;-61
2023/06/04 01:33:27;;;;;;;0.47;0.32;;;23.50;33.20;;;;;;5053755;28;20195;-62
2023/06/04 01:35:53;;;;;;;0.75;0.50;;;23.50;33.30;;;;;;5035486;28;20029;-63
2023/06/04 01:38:19;;;;;;;0.47;0.47;;;23.50;33.30;;;;;;5050537;28;20096;-64
2023/06/04 01:40:46;;;;;;;1.63;0.50;;;23.50;33.30;;;;;;5053241;28;20077;-64
2023/06/04 01:43:12;;;;;;;0.70;0.40;;;23.50;33.30;;;;;;5034900;28;20075;-64
2023/06/04 01:45:38;;;;;;;0.98;0.40;;;23.50;33.30;;;;;;5032373;28;20042;-64
2023/06/04 01:48:05;;;;;;;1.67;0.50;;;23.50;33.30;;;;;;5034071;28;20025;-62
2023/06/04 01:50:31;;;;;;;0.82;0.50;;;23.50;33.30;;;;;;5037502;28;20110;-64
2023/06/04 01:52:58;;;;;;;0.70;0.50;;;23.50;33.30;;;;;;5034925;28;20024;-64
2023/06/04 01:55:29;;;;;;;0.70;0.40;;;23.50;33.30;;;;;;5036856;28;20041;-62
2023/06/04 01:57:54;;;;;;;0.82;0.50;;;23.50;33.30;;;;;;5033738;28;20108;-63
2023/06/04 02:00:20;;;;;;;1.25;0.60;;;23.40;33.30;;;;;;5032119;28;20466;-62
2023/06/04 02:02:50;;;;;;;2.92;0.68;;;23.40;33.30;;;;;;5032490;28;20091;-64
2023/06/04 02:05:16;;;;;;;0.57;0.40;;;23.40;33.40;;;;;;5030582;28;20030;-62
2023/06/04 02:07:44;;;;;;;0.65;0.43;;;23.40;33.40;;;;;;5037667;28;20048;-60
2023/06/04 02:10:12;;;;;;;0.75;0.30;;;23.40;33.40;;;;;;5033428;28;20021;-62
2023/06/04 02:12:40;;;;;;;2.40;0.40;;;23.40;33.40;;;;;;5031737;28;20039;-61
2023/06/04 02:15:07;;;;;;;1.08;0.50;;;23.40;33.40;;;;;;5033410;28;20073;-62
2023/06/04 02:17:37;;;;;;;1.52;0.57;;;23.40;33.40;;;;;;5030716;28;20037;-61
2023/06/04 02:20:04;;;;;;;1.13;0.60;;;23.40;33.40;;;;;;5031211;28;20040;-61
2023/06/04 02:22:30;;;;;;;0.85;0.50;;;23.40;33.40;;;;;;5029566;28;20143;-62
2023/06/04 02:24:56;;;;;;;1.35;0.57;;;23.40;33.40;;;;;;5031599;28;20183;-61
2023/06/04 02:27:22;;;;;;;0.60;0.40;;;23.40;33.40;;;;;;5033579;28;20130;-62
2023/06/04 02:29:47;;;;;;;0.77;0.40;;;23.40;33.40;;;;;;5032736;28;20384;-62
2023/06/04 02:32:14;;;;;;;0.38;0.38;;;23.30;33.40;;;;;;5035628;28;20097;-63
2023/06/04 02:34:40;;;;;;;0.50;0.40;;;23.30;33.40;;;;;;5033118;28;20045;-62
2023/06/04 02:37:07;;;;;;;0.50;0.40;;;23.30;33.40;;;;;;5033011;28;20025;-61
2023/06/04 02:39:33;;;;;;;0.55;0.47;;;23.30;33.40;;;;;;5037187;28;20520;-60
2023/06/04 02:41:58;;;;;;;0.98;0.60;;;23.30;33.40;;;;;;5029993;28;20029;-63
2023/06/04 02:44:25;;;;;;;0.60;0.40;;;23.30;33.40;;;;;;5036523;28;20685;-65
2023/06/04 02:46:51;;;;;;;1.17;0.50;;;23.30;33.40;;;;;;5054781;28;20045;-63
2023/06/04 02:49:17;;;;;;;1.08;0.47;;;23.30;33.40;;;;;;5050104;28;20025;-63
2023/06/04 02:51:44;;;;;;;0.50;0.40;;;23.30;33.50;;;;;;5053806;28;20428;-61
2023/06/04 02:54:10;;;;;;;0.50;0.40;;;23.30;33.40;;;;;;5031574;28;20127;-63
2023/06/04 02:56:37;;;;;;;1.23;0.47;;;23.30;33.50;;;;;;5031854;28;20037;-63
2023/06/04 02:59:03;;;;;;;1.30;0.50;;;23.30;33.50;;;;;;5032768;28;20073;-64
2023/06/04 03:01:30;;;;;;;0.75;0.50;;;23.30;33.50;;;;;;5039712;28;20028;-62
2023/06/04 03:04:03;;;;;;;0.77;0.50;;;23.30;33.50;;;;;;5038579;28;20029;-61
2023/06/04 03:06:29;;;;;;;0.70;0.50;;;23.30;33.50;;;;;;5058524;28;20070;-60
2023/06/04 03:08:56;;;;;;;0.63;0.40;;;23.20;33.50;;;;;;5049632;28;20119;-62
2023/06/04 03:11:22;;;;;;;0.55;0.40;;;23.20;33.50;;;;;;5039713;28;20025;-62
2023/06/04 03:13:49;;;;;;;0.77;0.40;;;23.20;33.50;;;;;;5036784;28;20110;-62
2023/06/04 03:16:15;;;;;;;1.13;0.70;;;23.20;33.60;;;;;;5034005;28;20190;-61
2023/06/04 03:18:42;;;;;;;0.88;0.40;;;23.20;33.60;;;;;;5055992;28;20421;-62
2023/06/04 03:21:11;;;;;;;0.90;0.50;;;23.20;33.60;;;;;;5031769;28;20106;-62
2023/06/04 03:23:38;;;;;;;1.15;0.50;;;23.20;33.60;;;;;;5036509;28;20101;-62
2023/06/04 03:26:04;;;;;;;1.02;0.52;;;23.20;33.70;;;;;;5031196;28;20111;-59
2023/06/04 03:28:31;;;;;;;0.77;0.50;;;23.20;33.70;;;;;;5051662;28;20040;-62
2023/06/04 03:30:59;;;;;;;0.80;0.50;;;23.20;33.70;;;;;;5030850;28;20145;-60
2023/06/04 03:33:26;;;;;;;0.65;0.40;;;23.20;33.70;;;;;;5032008;28;20800;-62
2023/06/04 03:35:52;;;;;;;0.77;0.57;;;23.20;33.70;;;;;;5058238;28;20060;-60
2023/06/04 03:38:19;;;;;;;0.60;0.40;;;23.20;33.70;;;;;;5053787;28;20024;-64
2023/06/04 03:40:46;;;;;;;1.10;0.50;;;23.20;33.80;;;;;;5033492;28;20472;-63
2023/06/04 03:43:13;;;;;;;0.77;0.30;;;23.20;33.80;;;;;;5035694;28;20123;-62
2023/06/04 03:45:40;;;;;;;0.77;0.50;;;23.20;33.80;;;;;;5022266;28;20402;-62
2023/06/04 03:48:07;;;;;;;0.82;0.50;;;23.20;33.80;;;;;;5008232;28;20074;-64
2023/06/04 03:50:35;;;;;;;0.70;0.52;;;23.10;33.80;;;;;;5009872;28;20025;-62
2023/06/04 03:53:01;;;;;;;1.45;0.63;;;23.10;33.80;;;;;;5006186;28;20041;-64
2023/06/04 03:55:31;;;;;;;0.30;0.20;;;23.20;33.90;;;;;;5014434;28;20698;-62
2023/06/04 03:57:59;;;;;;;0.75;0.50;;;23.10;33.90;;;;;;5007585;28;20025;-63
2023/06/04 04:00:25;;;;;;;0.40;0.35;;;23.20;34.00;;;;;;5008162;28;21408;-62
2023/06/04 04:02:56;;;;;;;2.42;0.50;;;23.10;34.00;;;;;;5015662;28;20044;-63
2023/06/04 04:05:25;;;;;;;1.05;0.60;;;23.10;34.00;;;;;;5009469;28;20052;-63
2023/06/04 04:07:52;;;;;;;0.50;0.40;;;23.20;34.00;;;;;;5013787;28;20078;-61
2023/06/04 04:10:23;;;;;;;1.13;0.60;;;23.20;34.70;;;;;;5012986;28;20117;-61
2023/06/04 04:12:51;;;;;;;1.02;0.47;;;23.20;34.00;;;;;;5005201;28;20036;-64
2023/06/04 04:15:19;;;;;;;0.77;0.40;;;23.20;34.00;;;;;;5008313;28;20461;-63
2023/06/04 04:17:45;;;;;;;1.83;0.65;;;23.20;34.10;;;;;;5017596;28;20041;-61
2023/06/04 04:20:11;;;;;;;0.93;0.70;;;23.20;34.00;;;;;;5012491;28;20070;-61
2023/06/04 04:22:43;;;;;;;0.68;0.40;;;23.20;34.10;;;;;;5012266;28;20541;-60
2023/06/04 04:25:11;;;;;;;1.60;0.70;;;23.20;34.00;;;;;;5015393;28;20022;-60
2023/06/04 04:27:40;;;;;;;0.88;0.60;;;23.20;34.10;;;;;;5008850;28;20018;-62
2023/06/04 04:30:09;;;;;;;0.93;0.40;;;23.20;34.00;;;;;;5010420;28;20650;-60
2023/06/04 04:32:38;;;;;;;0.70;0.40;;;23.20;34.00;;;;;;5003374;28;20079;-60
2023/06/04 04:35:05;;;;;;;0.88;0.57;;;23.20;34.00;;;;;;5002765;28;20041;-61
2023/06/04 04:37:38;;;;;;;0.88;0.60;;;23.20;34.10;;;;;;5009322;28;20133;-61
2023/06/04 04:40:09;;;;;;;0.60;0.40;;;23.20;34.10;;;;;;5009989;28;20140;-63
2023/06/04 04:42:36;;;;;;;0.70;0.40;;;23.20;34.10;;;;;;5006916;28;20026;-63
2023/06/04 04:45:05;;;;;;;1.25;0.68;;;23.20;34.10;;;;;;5009173;28;20464;-64
2023/06/04 04:47:31;;;;;;;0.52;0.40;;;23.20;34.10;;;;;;5008023;28;20021;-61
2023/06/04 04:49:58;;;;;;;1.08;0.50;;;23.20;34.10;;;;;;5006049;28;20076;-63
2023/06/04 04:52:25;;;;;;;1.08;0.50;;;23.20;34.20;;;;;;5004786;28;20026;-62
2023/06/04 04:54:55;;;;;;;0.65;0.40;;;23.20;34.20;;;;;;5011854;28;20440;-61
2023/06/04 04:57:22;;;;;;;1.42;0.63;;;23.20;34.20;;;;;;5010186;28;20029;-61
2023/06/04 04:59:51;;;;;;;0.70;0.52;;;23.30;34.30;;;;;;5007136;28;20034;-62
2023/06/04 05:02:17;;;;;;;0.77;0.50;;;23.20;34.20;;;;;;4991904;28;20349;-63
2023/06/04 05:04:44;;;;;;;0.95;0.50;;;23.20;34.20;;;;;;5024067;28;20420;-62
2023/06/04 05:07:10;;;;;;;1.00;0.40;;;23.20;34.20;;;;;;5010296;28;20117;-61
2023/06/04 05:09:36;;;;;;;0.50;0.40;;;23.20;34.20;;;;;;5011642;28;20109;-63
2023/06/04 05:12:03;;;;;;;1.40;0.40;;;23.30;34.30;;;;;;4990423;28;20120;-64
2023/06/04 05:14:31;;;;;;;0.50;0.40;;;23.30;34.30;;;;;;5011335;28;20111;-64
2023/06/04 05:16:57;;;;;;;0.63;0.43;;;23.20;34.20;;;;;;5010525;28;20390;-61
2023/06/04 05:19:23;;;;;;;1.02;0.45;;;23.30;34.30;;;;;;5014139;28;20180;-63
2023/06/04 05:21:50;;;;;;;0.60;0.40;;;23.30;34.30;;;;;;5013563;28;20113;-61
2023/06/04 05:24:16;;;;;;;0.85;0.47;;;23.30;34.30;;;;;;5013396;28;20033;-60
2023/06/04 05:26:43;;;;;;;1.50;0.50;;;23.30;34.30;;;;;;5016829;28;20022;-62
2023/06/04 05:29:15;;;;;;;0.95;0.50;;;23.30;34.30;;;;;;5016734;28;20109;-63
2023/06/04 05:31:43;;;;;;;0.95;0.60;;;23.30;34.30;;;;;;4977751;28;20045;-63
2023/06/04 05:34:15;;;;;;;0.70;0.40;;;23.30;34.30;;;;;;4995589;28;20146;-62
2023/06/04 05:36:43;;;;;;;1.55;0.70;;;23.30;34.30;;;;;;4975622;28;20143;-63
2023/06/04 05:39:10;;;;;;;1.13;0.50;;;23.30;34.30;;;;;;4984475;28;20055;-62
2023/06/04 05:41:47;;;;;;;0.93;0.50;;;23.30;34.30;;;;;;4980811;28;20145;-63
2023/06/04 05:44:15;;;;;;;2.95;0.70;;;23.30;34.30;;;;;;4977021;28;20073;-61
2023/06/04 05:46:41;;;;;;;0.90;0.50;;;23.30;34.30;;;;;;4984091;28;20151;-60
2023/06/04 05:49:07;;;;;;;0.98;0.50;;;23.30;34.40;;;;;;4990605;28;20035;-61
2023/06/04 05:51:32;;;;;;;1.45;0.60;;;23.30;34.30;;;;;;4974023;28;20076;-61
2023/06/04 05:53:58;;;;;;;1.20;0.50;;;23.30;34.40;;;;;;4978369;28;20380;-62
2023/06/04 05:56:26;;;;;;;0.85;0.40;;;23.30;34.40;;;;;;4983514;28;20077;-63
2023/06/04 05:58:53;;;;;;;0.88;0.50;;;23.30;34.40;;;;;;4995176;28;20029;-63
2023/06/04 06:01:21;;;;;;;1.15;0.70;;;23.30;34.40;;;;;;4987632;28;20100;-62
2023/06/04 06:03:47;;;;;;;0.40;0.40;;;23.30;34.40;;;;;;5008884;28;20034;-60
2023/06/04 06:06:13;;;;;;;2.40;0.50;;;23.30;34.40;;;;;;5013951;28;20049;-61
2023/06/04 06:08:39;;;;;;;1.65;0.60;;;23.40;34.50;;;;;;5009306;28;20358;-63
2023/06/04 06:11:06;;;;;;;0.82;0.40;;;23.30;34.50;;;;;;5011320;28;20102;-62
2023/06/04 06:13:32;;;;;;;0.55;0.30;;;23.40;34.50;;;;;;5009653;28;20091;-62
2023/06/04 06:15:59;;;;;;;0.95;0.50;;;23.40;34.50;;;;;;5008854;28;20133;-60
2023/06/04 06:18:25;;;;;;;1.10;0.50;;;23.40;34.60;;;;;;5004475;28;20021;-61
2023/06/04 06:20:51;;;;;;;0.65;0.40;;;23.40;34.60;;;;;;5010972;28;20120;-61
2023/06/04 06:23:18;;;;;;;0.77;0.50;;;23.40;34.60;;;;;;5011311;28;20425;-61
2023/06/04 06:25:45;;;;;;;0.85;0.50;;;23.40;34.60;;;;;;5009659;28;20099;-62
2023/06/04 06:28:19;;;;;;;1.00;0.45;;;23.40;34.70;;;;;;5010703;28;20029;-63
2023/06/04 06:30:46;;;;;;;0.88;0.50;;;23.40;34.70;;;;;;5010674;28;20113;-62
2023/06/04 06:33:12;;;;;;;0.80;0.50;;;23.40;34.70;;;;;;5015772;28;20041;-62
2023/06/04 06:35:38;;;;;;;0.60;0.40;;;23.40;34.70;;;;;;5014276;28;20071;-62
2023/06/04 06:38:04;;;;;;;1.60;0.60;;;23.40;34.70;;;;;;5016142;28;20102;-62
2023/06/04 06:40:30;;;;;;;1.90;0.47;;;23.40;34.70;;;;;;5010635;28;20093;-63
2023/06/04 06:42:56;;;;;;;1.17;0.50;;;23.40;34.70;;;;;;5014893;28;20057;-61
2023/06/04 06:45:22;;;;;;;0.95;0.35;;;23.40;34.70;;;;;;5018604;28;20364;-63
2023/06/04 06:47:48;;;;;;;2.00;0.35;;;23.40;34.70;;;;;;5037548;28;20025;-60
2023/06/04 06:50:14;;;;;;;0.85;0.50;;;23.40;34.70;;;;;;5034251;28;20054;-62
2023/06/04 06:52:40;;;;;;;0.68;0.40;;;23.40;34.70;;;;;;5032715;28;20116;-60
2023/06/04 06:55:06;;;;;;;0.95;0.47;;;23.40;34.70;;;;;;5033134;28;20051;-62
2023/06/04 06:57:33;;;;;;;1.00;0.70;;;23.40;34.70;;;;;;5031669;28;20033;-62
2023/06/04 06:59:59;;;;;;;2.58;0.68;;;23.40;34.80;;;;;;5042012;28;20152;-60
2023/06/04 07:02:25;;;;;;;1.20;0.50;;;23.40;34.70;;;;;;5028860;28;20153;-63
2023/06/04 07:04:51;;;;;;;1.88;0.50;;;23.50;34.70;;;;;;5031504;28;20309;-62
2023/06/04 07:07:17;;;;;;;0.68;0.55;;;23.50;34.70;;;;;;5026997;28;21932;-63
2023/06/04 07:09:43;;;;;;;0.68;0.52;;;23.50;34.70;;;;;;5041045;28;20033;-61
2023/06/04 07:12:09;;;;;;;1.58;0.60;;;23.50;34.60;;;;;;5031626;28;20062;-61
2023/06/04 07:14:34;;;;;;;0.68;0.60;;;23.50;34.60;;;;;;5034552;28;20126;-64
2023/06/04 07:17:00;;;;;;;0.90;0.50;;;23.40;34.50;;;;;;5033396;28;20183;-62
2023/06/04 07:19:26;;;;;;;1.88;0.70;;;23.50;34.60;;;;;;5035910;28;20032;-61
2023/06/04 07:21:54;;;;;;;0.88;0.52;;;23.40;34.50;;;;;;5030190;28;20116;-63
2023/06/04 07:24:20;;;;;;;1.33;0.50;;;23.50;34.50;;;;;;5036031;28;20432;-61
2023/06/04 07:26:47;;;;;;;2.25;0.82;;;23.50;34.50;;;;;;5031686;28;20057;-64
2023/06/04 07:29:13;;;;;;;1.20;0.60;;;23.50;34.50;;;;;;5027108;28;20340;-63
2023/06/04 07:31:38;;;;;;;1.38;0.60;;;23.50;34.50;;;;;;5026557;28;20048;-62
2023/06/04 07:34:04;;;;;;;2.45;0.65;;;23.50;34.50;;;;;;5029001;28;20049;-61
2023/06/04 07:36:30;;;;;;;1.45;0.70;;;23.50;34.50;;;;;;5030226;28;20039;-60
2023/06/04 07:39:04;;;;;;;0.88;0.50;;;23.50;34.50;;;;;;5025555;28;20109;-62
2023/06/04 07:41:30;;;;;;;1.20;0.80;;;23.50;34.50;;;;;;5033104;28;20183;-62
2023/06/04 07:43:56;;;;;;;1.25;0.57;;;23.50;34.50;;;;;;5029477;28;20025;-62
2023/06/04 07:46:22;;;;;;;1.25;0.60;;;23.50;34.50;;;;;;5040224;28;20075;-64
2023/06/04 07:48:48;;;;;;;1.52;0.52;;;23.50;34.40;;;;;;5027023;28;20033;-65
2023/06/04 07:51:14;;;;;;;1.35;0.65;;;23.50;35.00;;;;;;5046778;28;20037;-67
2023/06/04 07:53:42;;;;;;;1.42;0.68;;;23.50;34.40;;;;;;5029784;28;20067;-63
2023/06/04 07:56:08;;;;;;;1.25;0.60;;;23.50;34.50;;;;;;5047271;28;20155;-63
2023/06/04 07:58:34;;;;;;;1.98;0.60;;;23.50;34.50;;;;;;5051850;28;20080;-62
2023/06/04 08:01:00;;;;;;;0.90;0.68;;;23.50;34.50;;;;;;5049773;28;20442;-65
2023/06/04 08:03:26;;;;;;;1.10;0.55;;;23.50;34.50;;;;;;5053566;28;20055;-64
2023/06/04 08:05:52;;;;;;;1.33;0.60;;;23.50;34.40;;;;;;5050781;28;20035;-62
2023/06/04 08:08:18;;;;;;;1.83;0.60;;;23.50;34.30;;;;;;5047874;28;20133;-63
2023/06/04 08:10:44;;;;;;;1.25;0.60;;;23.50;34.20;;;;;;5053387;28;20395;-62
2023/06/04 08:13:10;;;;;;;1.45;0.80;;;23.60;34.20;;;;;;5052128;28;20032;-65
2023/06/04 08:15:36;;;;;;;2.15;0.65;;;23.60;34.20;;;;;;5053697;28;20029;-66
2023/06/04 08:18:02;;;;;;;1.10;0.50;;;23.60;34.10;;;;;;5048871;28;20135;-64
2023/06/04 08:20:28;;;;;;;1.17;0.47;;;23.50;33.90;;;;;;5047448;28;20108;-65
2023/06/04 08:22:54;;;;;;;0.47;0.40;;;23.60;33.80;;;;;;5051489;28;20400;-62
2023/06/04 08:25:20;;;;;;;0.47;0.45;;;23.50;33.60;;;;;;5048948;28;20538;-63
2023/06/04 08:27:46;;;;;;;1.08;0.60;;;23.60;33.50;;;;;;5050530;28;20094;-65
2023/06/04 08:30:12;;;;;;;1.02;0.55;;;23.60;33.30;;;;;;5055715;28;20030;-63
2023/06/04 08:32:38;;;;;;;1.88;0.60;;;23.60;33.10;;;;;;5053453;28;20107;-63
2023/06/04 08:35:05;;;;;;;0.80;0.50;;;23.60;32.90;;;;;;5058756;28;20073;-65
2023/06/04 08:37:30;;;;;;;0.90;0.60;;;23.60;32.80;;;;;;5052958;28;20097;-62
2023/06/04 08:39:56;;;;;;;1.10;0.57;;;23.60;32.70;;;;;;5054966;28;20090;-66
2023/06/04 08:42:44;;;;;;;0.90;0.40;;;23.60;32.70;;;;;;5054296;28;20215;-64
2023/06/04 08:45:12;;;;;;;1.42;0.90;;;23.60;32.70;;;;;;5055944;28;20056;-64
2023/06/04 08:47:50;;;;;;;1.38;0.70;;;23.60;32.70;;;;;;5059260;28;20044;-64
2023/06/04 08:50:24;;;;;;;0.50;0.50;;;23.60;32.70;;;;;;5054478;28;20072;-62
2023/06/04 08:52:55;;;;;;;1.15;0.68;;;23.60;32.50;;;;;;5055486;28;20025;-64
2023/06/04 08:55:22;;;;;;;0.80;0.40;;;23.60;32.40;;;;;;5041996;28;20098;-62
2023/06/04 08:57:53;;;;;;;0.63;0.47;;;23.60;32.20;;;;;;5036074;28;20116;-64
2023/06/04 09:00:19;;;;;;;1.20;0.70;;;23.60;32.10;;;;;;5048903;28;20328;-63
2023/06/04 09:02:46;;;;;;;0.68;0.50;;;23.60;32.10;;;;;;5037306;28;20375;-64
2023/06/04 09:05:19;;;;;;;1.80;0.60;;;23.60;32.10;;;;;;5037986;28;20036;-63
2023/06/04 09:07:46;;;;;;;4.07;1.80;;;23.70;32.20;;;;;;5039406;28;20016;-65
2023/06/04 09:10:18;;;;;;;8.13;4.13;;;23.60;32.40;;;;;;5049077;28;20051;-62
2023/06/04 09:12:47;;;;;;;8.40;5.22;;;23.70;33.20;;;;;;5034227;28;20108;-61
2023/06/04 09:15:13;;;;;;;16.05;5.72;;;23.70;34.00;;;;;;5049139;28;20094;-63
2023/06/04 09:17:39;;;;;;;11.10;5.10;;;23.70;34.70;;;;;;5040474;28;20278;-61
2023/06/04 09:20:08;;;;;;;10.38;4.97;;;23.70;35.40;;;;;;5035515;28;20036;-63
2023/06/04 09:22:37;;;;;;;8.68;4.90;;;23.80;36.00;;;;;;5033742;28;20032;-61
2023/06/04 09:25:18;;;;;;;12.82;5.50;;;23.80;36.40;;;;;;5049709;28;20028;-64
2023/06/04 09:27:44;;;;;;;10.63;4.57;;;23.80;36.80;;;;;;5053202;28;20392;-64
2023/06/04 09:30:10;;;;;;;9.60;4.78;;;23.80;37.20;;;;;;5037073;28;20033;-62
2023/06/04 09:32:36;;;;;;;8.23;3.78;;;23.90;37.60;;;;;;5049348;28;20048;-62
2023/06/04 09:35:16;;;;;;;4.97;2.03;;;23.90;37.20;;;;;;5047753;28;20466;-63
2023/06/04 09:37:51;;;;;;;5.35;2.45;;;23.90;36.10;;;;;;5033204;28;20021;-61
2023/06/04 09:40:17;;;;;;;8.75;4.47;;;23.90;35.60;;;;;;5050861;28;20037;-64
2023/06/04 09:42:44;;;;;;;17.10;6.20;;;23.80;36.00;;;;;;5032017;28;20080;-69
2023/06/04 09:45:11;;;;;;;15.10;7.10;;;23.90;37.00;;;;;;5048778;28;20468;-63
2023/06/04 09:47:43;;;;;;;17.55;10.27;;;23.90;37.80;;;;;;5045475;28;20036;-61
2023/06/04 09:50:13;;;;;;;20.35;11.60;;;23.90;38.70;;;;;;5049093;28;21239;-64
2023/06/04 09:52:39;;;;;;;22.17;11.63;;;24.00;39.60;;;;;;5047160;28;20610;-64
2023/06/04 09:55:19;;;;;;;18.52;9.85;;;24.00;40.40;;;;;;5046459;28;20119;-65
2023/06/04 09:57:50;;;;;;;17.27;8.63;;;24.10;40.90;;;;;;5051321;28;20029;-62
2023/06/04 10:00:21;;;;;;;14.85;7.72;;;24.10;40.30;;;;;;5053355;28;20037;-64
2023/06/04 10:02:47;;;;;;;12.05;5.28;;;24.10;39.50;;;;;;5057648;28;20111;-63
2023/06/04 10:05:14;;;;;;;9.45;4.10;;;24.10;39.20;;;;;;5035367;28;20043;-61
2023/06/04 10:07:44;;;;;;;6.60;3.90;;;24.10;37.70;;;;;;5051661;28;20029;-65
2023/06/04 10:10:23;;;;;;;5.63;3.22;;;24.10;37.10;;;;;;5051765;28;20582;-64
2023/06/04 10:12:54;;;;;;;4.20;2.33;;;24.10;36.50;;;;;;5048352;28;20039;-64
2023/06/04 10:15:20;;;;;;;4.38;1.98;;;24.10;35.90;;;;;;5029232;28;20135;-61
2023/06/04 10:17:48;;;;;;;4.20;1.65;;;24.10;35.40;;;;;;5049934;28;20478;-65
2023/06/04 10:20:14;;;;;;;2.97;1.63;;;24.10;35.00;;;;;;5053950;28;20085;-62
2023/06/04 10:22:41;;;;;;;2.85;1.10;;;24.10;34.60;;;;;;5032248;28;20413;-64
2023/06/04 10:25:10;;;;;;;2.85;1.30;;;24.20;34.40;;;;;;5034791;28;21583;-61
2023/06/04 10:27:36;;;;;;;3.53;1.40;;;24.20;34.10;;;;;;5029260;28;20092;-62
2023/06/04 10:30:06;;;;;;;2.92;1.30;;;24.20;34.00;;;;;;5030189;28;20397;-63
2023/06/04 10:32:35;;;;;;;2.22;1.23;;;24.20;33.80;;;;;;5048829;28;20392;-62
2023/06/04 10:35:08;;;;;;;2.90;1.35;;;24.20;33.70;;;;;;5035489;28;20464;-63
2023/06/04 10:37:34;;;;;;;1.95;1.00;;;24.20;33.50;;;;;;5053055;28;20103;-63
2023/06/04 10:40:00;;;;;;;1.25;0.80;;;24.20;33.40;;;;;;5051517;28;20025;-63
2023/06/04 10:42:29;;;;;;;2.72;1.23;;;24.20;33.20;;;;;;5052093;28;20044;-67
2023/06/04 10:44:55;;;;;;;1.63;0.98;;;24.30;33.10;;;;;;5048476;28;20043;-62
2023/06/04 10:47:25;;;;;;;2.13;1.00;;;24.30;32.90;;;;;;5030665;28;20040;-63
2023/06/04 10:49:52;;;;;;;2.35;1.10;;;24.30;32.80;;;;;;5036281;28;20071;-62
2023/06/04 10:52:18;;;;;;;2.50;0.90;;;24.30;32.70;;;;;;5038033;28;20094;-62
2023/06/04 10:54:46;;;;;;;2.20;0.98;;;24.30;32.70;;;;;;5052303;28;20412;-61
2023/06/04 10:57:13;;;;;;;2.75;1.27;;;24.30;32.80;;;;;;5050077;28;20036;-62
2023/06/04 10:59:40;;;;;;;2.65;0.93;;;24.20;32.80;;;;;;5059556;28;20048;-68
2023/06/04 11:02:09;;;;;;;2.03;0.93;;;24.20;32.70;;;;;;5049907;28;20088;-63
2023/06/04 11:04:40;;;;;;;1.92;0.90;;;24.20;32.50;;;;;;5030815;28;20451;-67
2023/06/04 11:07:10;;;;;;;2.55;1.00;;;24.30;32.40;;;;;;5029778;28;20171;-59
2023/06/04 11:09:47;;;;;;;1.75;0.65;;;24.20;32.30;;;;;;5037594;28;20039;-61
2023/06/04 11:12:13;;;;;;;3.58;1.23;;;24.30;32.30;;;;;;5055971;28;20070;-63
2023/06/04 11:14:39;;;;;;;1.80;0.75;;;24.30;32.20;;;;;;5053044;28;20118;-62
2023/06/04 11:17:11;;;;;;;2.42;0.65;;;24.30;32.00;;;;;;5052993;28;20036;-63
2023/06/04 11:19:37;;;;;;;1.67;0.70;;;24.30;31.80;;;;;;5050974;28;20419;-62
2023/06/04 11:22:05;;;;;;;0.90;0.68;;;24.30;31.70;;;;;;5050006;28;20033;-61
2023/06/04 11:24:32;;;;;;;0.93;0.70;;;24.30;31.60;;;;;;5027374;28;20029;-63
2023/06/04 11:27:02;;;;;;;1.40;0.70;;;24.30;31.50;;;;;;5045219;28;20112;-64
2023/06/04 11:29:28;;;;;;;1.60;0.73;;;24.30;31.40;;;;;;5051262;28;20403;-63
2023/06/04 11:31:54;;;;;;;1.05;0.75;;;24.30;31.30;;;;;;5031379;28;20025;-61
2023/06/04 11:34:28;;;;;;;1.35;0.70;;;24.30;31.10;;;;;;5053538;28;20134;-59
2023/06/04 11:36:54;;;;;;;1.35;0.70;;;24.30;31.10;;;;;;5054723;28;20043;-60
2023/06/04 11:39:21;;;;;;;1.70;0.70;;;24.40;31.30;;;;;;5050322;28;20363;-60
2023/06/04 11:41:50;;;;;;;1.33;0.77;;;24.40;31.30;;;;;;5053611;28;20549;-59
2023/06/04 11:44:19;;;;;;;0.95;0.60;;;24.40;31.20;;;;;;5037049;28;20102;-61
2023/06/04 11:46:48;;;;;;;1.00;0.60;;;24.40;31.10;;;;;;5054627;28;20036;-60
2023/06/04 11:49:18;;;;;;;1.05;0.60;;;24.40;31.70;;;;;;5053033;28;20029;-59
2023/06/04 11:51:48;;;;;;;1.02;0.50;;;24.40;30.90;;;;;;5052821;28;20032;-59
2023/06/04 11:54:19;;;;;;;1.42;0.70;;;24.40;30.80;;;;;;5049100;28;20048;-62
2023/06/04 11:56:49;;;;;;;0.75;0.70;;;24.40;30.70;;;;;;5053977;28;20056;-60
2023/06/04 11:59:16;;;;;;;1.33;0.65;;;24.40;30.60;;;;;;5053227;28;20051;-61
2023/06/04 12:01:43;;;;;;;0.68;0.60;;;24.40;30.50;;;;;;5037393;28;20780;-61
2023/06/04 12:04:17;;;;;;;0.80;0.60;;;24.40;30.50;;;;;;5051248;28;20356;-61
2023/06/04 12:06:59;;;;;;;1.38;0.55;;;24.40;30.40;;;;;;5048097;28;20032;-61
2023/06/04 12:09:39;;;;;;;0.95;0.70;;;24.40;30.50;;;;;;5053311;28;20037;-62
2023/06/04 12:12:07;;;;;;;0.70;0.60;;;24.40;30.40;;;;;;5056186;28;20029;-65
2023/06/04 12:14:33;;;;;;;1.67;0.50;;;24.40;30.40;;;;;;5051292;28;20037;-61
2023/06/04 12:17:06;;;;;;;1.33;0.70;;;24.40;30.30;;;;;;5029664;28;20031;-60
2023/06/04 12:19:33;;;;;;;0.95;0.50;;;24.40;30.20;;;;;;5056166;28;20366;-61
2023/06/04 12:22:04;;;;;;;0.65;0.47;;;24.40;30.20;;;;;;5055565;28;20032;-57
2023/06/04 12:24:31;;;;;;;1.02;0.63;;;24.40;30.10;;;;;;5050913;28;20416;-62
2023/06/04 12:27:09;;;;;;;0.75;0.50;;;24.40;30.00;;;;;;5052809;28;20183;-59
2023/06/04 12:29:35;;;;;;;0.98;0.60;;;24.40;30.00;;;;;;5049858;28;20045;-61
2023/06/04 12:32:03;;;;;;;1.98;0.43;;;24.50;30.00;;;;;;5049955;28;20036;-60
2023/06/04 12:34:29;;;;;;;0.88;0.50;;;24.50;30.00;;;;;;5048538;28;20028;-60
2023/06/04 12:36:55;;;;;;;0.88;0.50;;;24.40;30.00;;;;;;5031767;28;20416;-62
2023/06/04 12:39:21;;;;;;;1.17;0.52;;;24.50;30.00;;;;;;5051655;28;20028;-60
2023/06/04 12:41:47;;;;;;;0.95;0.47;;;24.50;30.00;;;;;;5046920;28;20052;-63
2023/06/04 12:44:13;;;;;;;0.60;0.55;;;24.50;30.00;;;;;;5050221;28;20467;-62
2023/06/04 12:46:38;;;;;;;0.82;0.60;;;24.50;30.00;;;;;;5056457;28;20112;-58
2023/06/04 12:49:05;;;;;;;0.77;0.50;;;24.50;30.00;;;;;;5033862;28;20048;-60